createdAt,value
2022-10-01T00:00:01.616Z,9.00
2022-10-01T00:00:11.020Z,9.00
2022-10-01T00:00:20.464Z,9.00
2022-10-01T00:00:29.905Z,9.00
2022-10-01T00:00:39.336Z,9.00
2022-10-01T00:00:48.765Z,9.00
2022-10-01T00:00:58.254Z,9.00
2022-10-01T00:01:07.717Z,9.00
2022-10-01T00:01:17.170Z,9.00
2022-10-01T00:01:26.563Z,9.00
2022-10-01T00:01:36.640Z,9.00
2022-10-01T00:01:45.389Z,9.00
2022-10-01T00:01:54.812Z,9.00
2022-10-01T00:02:04.312Z,9.00
2022-10-01T00:02:22.972Z,9.00
2022-10-01T00:02:32.437Z,9.00
2022-10-01T00:02:41.892Z,9.00
2022-10-01T00:02:51.313Z,9.00
2022-10-01T00:03:01.015Z,9.00
2022-10-01T00:03:10.376Z,9.00
2022-10-01T00:03:19.863Z,9.00
2022-10-01T00:03:29.160Z,9.00
2022-10-01T00:03:38.569Z,9.00
2022-10-01T00:03:48.000Z,9.00
2022-10-01T00:03:57.380Z,9.00
2022-10-01T00:04:06.802Z,9.00
2022-10-01T00:04:16.207Z,9.00
2022-10-01T00:04:25.631Z,9.00
2022-10-01T00:04:35.135Z,9.00
2022-10-01T00:04:44.548Z,9.00
2022-10-01T00:05:03.373Z,9.00
2022-10-01T00:05:12.795Z,9.00
2022-10-01T00:05:22.207Z,9.00
2022-10-01T00:05:31.621Z,9.00
2022-10-01T00:05:41.048Z,9.00
2022-10-01T00:05:50.464Z,9.00
2022-10-01T00:05:59.876Z,9.00
2022-10-01T00:06:09.328Z,9.00
2022-10-01T00:06:18.738Z,9.00
2022-10-01T00:06:28.145Z,9.00
2022-10-01T00:06:37.582Z,9.00
2022-10-01T00:06:47.000Z,9.00
2022-10-01T00:06:56.416Z,9.00
2022-10-01T00:07:05.840Z,9.00
2022-10-01T00:07:15.550Z,9.00
2022-10-01T00:07:24.739Z,9.00
2022-10-01T00:07:34.172Z,9.00
2022-10-01T00:07:52.973Z,9.00
2022-10-01T00:08:02.398Z,9.00
2022-10-01T00:08:11.805Z,9.00
2022-10-01T00:08:21.225Z,9.10
2022-10-01T00:08:30.619Z,9.10
2022-10-01T00:08:40.028Z,9.10
2022-10-01T00:08:49.566Z,9.10
2022-10-01T00:08:58.856Z,9.10
2022-10-01T00:09:08.291Z,9.10
2022-10-01T00:09:17.709Z,9.10
2022-10-01T00:09:27.123Z,9.10
2022-10-01T00:09:36.534Z,9.10
2022-10-01T00:09:46.098Z,9.10
2022-10-01T00:09:55.540Z,9.10
2022-10-01T00:10:04.943Z,9.10
2022-10-01T00:10:14.379Z,9.10
2022-10-01T00:10:33.248Z,9.10
2022-10-01T00:10:42.680Z,9.10
2022-10-01T00:10:52.169Z,9.10
2022-10-01T00:11:01.643Z,9.10
2022-10-01T00:11:11.081Z,9.10
2022-10-01T00:11:20.490Z,9.10
2022-10-01T00:11:30.004Z,9.10
2022-10-01T00:11:39.312Z,9.10
2022-10-01T00:11:48.758Z,9.10
2022-10-01T00:11:58.136Z,9.10
2022-10-01T00:12:07.563Z,9.10
2022-10-01T00:12:16.967Z,9.10
2022-10-01T00:12:26.368Z,9.10
2022-10-01T00:12:35.828Z,9.10
2022-10-01T00:12:45.239Z,9.10
2022-10-01T00:12:54.690Z,9.10
2022-10-01T00:13:04.122Z,9.10
2022-10-01T00:13:23.012Z,9.10
2022-10-01T00:13:32.447Z,9.10
2022-10-01T00:13:41.866Z,9.10
2022-10-01T00:13:51.305Z,9.10
2022-10-01T00:14:00.724Z,9.10
2022-10-01T00:14:10.130Z,9.10
2022-10-01T00:14:19.550Z,9.10
2022-10-01T00:14:29.002Z,9.00
2022-10-01T00:14:38.411Z,9.10
2022-10-01T00:14:47.816Z,9.00
2022-10-01T00:14:57.242Z,9.10
2022-10-01T00:15:08.187Z,9.00
2022-10-01T00:15:16.099Z,9.00
2022-10-01T00:15:25.500Z,9.00
2022-10-01T00:15:34.921Z,9.00
2022-10-01T00:15:44.342Z,9.10
2022-10-01T00:16:03.197Z,9.00
2022-10-01T00:16:12.705Z,9.00
2022-10-01T00:16:22.150Z,9.00
2022-10-01T00:16:31.590Z,9.00
2022-10-01T00:16:40.971Z,9.00
2022-10-01T00:16:50.433Z,9.00
2022-10-01T00:16:59.831Z,9.00
2022-10-01T00:17:09.187Z,9.00
2022-10-01T00:17:18.612Z,9.00
2022-10-01T00:17:28.040Z,9.00
2022-10-01T00:17:37.450Z,9.00
2022-10-01T00:17:46.870Z,9.00
2022-10-01T00:17:56.301Z,9.00
2022-10-01T00:18:05.748Z,9.00
2022-10-01T00:18:15.176Z,9.00
2022-10-01T00:18:24.618Z,9.00
2022-10-01T00:18:43.464Z,9.00
2022-10-01T00:18:52.881Z,9.00
2022-10-01T00:19:02.297Z,9.00
2022-10-01T00:19:11.702Z,9.00
2022-10-01T00:19:21.110Z,9.00
2022-10-01T00:19:30.520Z,8.90
2022-10-01T00:19:39.955Z,8.90
2022-10-01T00:19:49.405Z,9.00
2022-10-01T00:19:58.798Z,9.00
2022-10-01T00:20:14.154Z,8.90
2022-10-01T00:20:17.641Z,8.90
2022-10-01T00:20:27.064Z,8.90
2022-10-01T00:20:36.489Z,8.90
2022-10-01T00:20:45.926Z,8.90
2022-10-01T00:20:55.355Z,8.90
2022-10-01T00:21:04.795Z,8.90
2022-10-01T00:21:14.203Z,8.90
2022-10-01T00:21:33.438Z,8.90
2022-10-01T00:21:42.559Z,8.90
2022-10-01T00:21:51.983Z,8.90
2022-10-01T00:22:01.441Z,8.90
2022-10-01T00:22:10.864Z,8.90
2022-10-01T00:22:20.279Z,8.90
2022-10-01T00:22:29.715Z,8.90
2022-10-01T00:22:39.129Z,8.90
2022-10-01T00:22:48.573Z,8.90
2022-10-01T00:22:57.993Z,8.90
2022-10-01T00:23:07.427Z,8.90
2022-10-01T00:23:16.842Z,8.90
2022-10-01T00:23:26.262Z,8.90
2022-10-01T00:23:35.668Z,8.90
2022-10-01T00:23:45.076Z,8.90
2022-10-01T00:23:54.491Z,8.90
2022-10-01T00:24:13.335Z,8.90
2022-10-01T00:24:22.727Z,8.80
2022-10-01T00:24:32.173Z,8.80
2022-10-01T00:24:41.593Z,8.80
2022-10-01T00:24:50.992Z,8.80
2022-10-01T00:25:00.473Z,8.80
2022-10-01T00:25:09.889Z,8.80
2022-10-01T00:25:19.284Z,8.80
2022-10-01T00:25:28.702Z,8.80
2022-10-01T00:25:38.122Z,8.80
2022-10-01T00:25:47.545Z,8.80
2022-10-01T00:25:56.966Z,8.80
2022-10-01T00:26:06.363Z,8.80
2022-10-01T00:26:15.763Z,8.80
2022-10-01T00:26:25.169Z,8.80
2022-10-01T00:26:34.577Z,8.80
2022-10-01T00:26:53.419Z,8.80
2022-10-01T00:27:02.850Z,8.80
2022-10-01T00:27:12.270Z,8.80
2022-10-01T00:27:21.685Z,8.80
2022-10-01T00:27:31.116Z,8.80
2022-10-01T00:27:40.549Z,8.80
2022-10-01T00:27:50.036Z,8.80
2022-10-01T00:27:59.423Z,8.80
2022-10-01T00:28:08.883Z,8.80
2022-10-01T00:28:18.265Z,8.80
2022-10-01T00:28:27.769Z,8.80
2022-10-01T00:28:37.037Z,8.70
2022-10-01T00:28:46.448Z,8.80
2022-10-01T00:28:55.864Z,8.70
2022-10-01T00:29:05.276Z,8.70
2022-10-01T00:29:14.722Z,8.80
2022-10-01T00:29:24.124Z,8.70
2022-10-01T00:29:42.956Z,8.80
2022-10-01T00:29:52.385Z,8.70
2022-10-01T00:30:01.795Z,8.70
2022-10-01T00:30:11.230Z,8.70
2022-10-01T00:30:20.689Z,8.70
2022-10-01T00:30:30.102Z,8.70
2022-10-01T00:30:40.505Z,8.70
2022-10-01T00:30:48.943Z,8.70
2022-10-01T00:30:58.434Z,8.70
2022-10-01T00:31:07.863Z,8.70
2022-10-01T00:31:17.219Z,8.70
2022-10-01T00:31:26.679Z,8.70
2022-10-01T00:31:36.278Z,8.70
2022-10-01T00:31:45.486Z,8.70
2022-10-01T00:31:54.884Z,8.70
2022-10-01T00:32:04.256Z,8.70
2022-10-01T00:32:23.047Z,8.70
2022-10-01T00:32:32.506Z,8.70
2022-10-01T00:32:41.922Z,8.70
2022-10-01T00:32:51.382Z,8.70
2022-10-01T00:33:00.784Z,8.70
2022-10-01T00:33:10.219Z,8.70
2022-10-01T00:33:19.639Z,8.70
2022-10-01T00:33:29.064Z,8.70
2022-10-01T00:33:38.498Z,8.70
2022-10-01T00:33:47.942Z,8.70
2022-10-01T00:33:57.350Z,8.70
2022-10-01T00:34:06.779Z,8.70
2022-10-01T00:34:16.228Z,8.70
2022-10-01T00:34:25.664Z,8.70
2022-10-01T00:34:35.082Z,8.70
2022-10-01T00:34:44.492Z,8.70
2022-10-01T00:35:03.333Z,8.70
2022-10-01T00:35:12.757Z,8.70
2022-10-01T00:35:22.170Z,8.70
2022-10-01T00:35:31.602Z,8.70
2022-10-01T00:35:41.015Z,8.70
2022-10-01T00:35:50.448Z,8.70
2022-10-01T00:35:59.897Z,8.70
2022-10-01T00:36:09.317Z,8.70
2022-10-01T00:36:18.740Z,8.70
2022-10-01T00:36:28.156Z,8.70
2022-10-01T00:36:37.597Z,8.70
2022-10-01T00:36:47.005Z,8.70
2022-10-01T00:36:56.429Z,8.70
2022-10-01T00:37:05.848Z,8.70
2022-10-01T00:37:15.294Z,8.70
2022-10-01T00:37:24.699Z,8.70
2022-10-01T00:37:34.110Z,8.70
2022-10-01T00:37:52.948Z,8.70
2022-10-01T00:38:02.367Z,8.70
2022-10-01T00:38:11.821Z,8.70
2022-10-01T00:38:21.244Z,8.70
2022-10-01T00:38:30.667Z,8.70
2022-10-01T00:38:40.085Z,8.70
2022-10-01T00:38:49.536Z,8.70
2022-10-01T00:38:58.955Z,8.70
2022-10-01T00:39:08.364Z,8.70
2022-10-01T00:39:17.771Z,8.70
2022-10-01T00:39:27.185Z,8.70
2022-10-01T00:39:36.576Z,8.70
2022-10-01T00:39:45.959Z,8.70
2022-10-01T00:39:55.372Z,8.70
2022-10-01T00:40:04.806Z,8.70
2022-10-01T00:40:14.232Z,8.70
2022-10-01T00:40:33.036Z,8.70
2022-10-01T00:40:42.448Z,8.70
2022-10-01T00:40:51.843Z,8.70
2022-10-01T00:41:01.275Z,8.70
2022-10-01T00:41:10.702Z,8.80
2022-10-01T00:41:20.095Z,8.80
2022-10-01T00:41:29.522Z,8.80
2022-10-01T00:41:38.941Z,8.80
2022-10-01T00:41:48.350Z,8.80
2022-10-01T00:41:57.853Z,8.80
2022-10-01T00:42:07.199Z,8.90
2022-10-01T00:42:16.643Z,8.90
2022-10-01T00:42:26.101Z,8.90
2022-10-01T00:42:35.485Z,9.00
2022-10-01T00:42:44.888Z,9.00
2022-10-01T00:42:54.315Z,9.00
2022-10-01T00:43:13.166Z,9.00
2022-10-01T00:43:22.574Z,9.10
2022-10-01T00:43:32.001Z,9.10
2022-10-01T00:43:41.469Z,9.10
2022-10-01T00:43:50.921Z,9.10
2022-10-01T00:44:00.358Z,9.20
2022-10-01T00:44:09.780Z,9.20
2022-10-01T00:44:19.197Z,9.20
2022-10-01T00:44:28.633Z,9.20
2022-10-01T00:44:38.109Z,9.20
2022-10-01T00:44:47.536Z,9.20
2022-10-01T00:44:56.960Z,9.20
2022-10-01T00:45:06.382Z,9.20
2022-10-01T00:45:15.796Z,9.20
2022-10-01T00:45:25.215Z,9.20
2022-10-01T00:45:34.693Z,9.30
2022-10-01T00:45:53.509Z,9.30
2022-10-01T00:46:02.941Z,9.40
2022-10-01T00:46:12.312Z,9.30
2022-10-01T00:46:21.732Z,9.20
2022-10-01T00:46:31.092Z,9.20
2022-10-01T00:46:40.493Z,9.30
2022-10-01T00:46:49.909Z,9.30
2022-10-01T00:46:59.296Z,9.30
2022-10-01T00:47:08.715Z,9.20
2022-10-01T00:47:18.172Z,9.20
2022-10-01T00:47:27.579Z,9.20
2022-10-01T00:47:36.988Z,9.20
2022-10-01T00:47:46.413Z,9.20
2022-10-01T00:47:55.812Z,9.20
2022-10-01T00:48:05.210Z,9.20
2022-10-01T00:48:14.640Z,9.20
2022-10-01T00:48:33.469Z,9.20
2022-10-01T00:48:42.887Z,9.10
2022-10-01T00:48:52.349Z,9.20
2022-10-01T00:49:01.761Z,9.10
2022-10-01T00:49:11.176Z,9.10
2022-10-01T00:49:20.602Z,9.10
2022-10-01T00:49:30.006Z,9.10
2022-10-01T00:49:39.434Z,9.10
2022-10-01T00:49:48.866Z,9.10
2022-10-01T00:49:59.569Z,9.10
2022-10-01T00:50:07.705Z,9.10
2022-10-01T00:50:17.131Z,9.10
2022-10-01T00:50:26.558Z,9.10
2022-10-01T00:50:35.969Z,9.10
2022-10-01T00:50:45.390Z,9.00
2022-10-01T00:50:54.806Z,9.00
2022-10-01T00:51:04.202Z,9.00
2022-10-01T00:51:23.033Z,9.00
2022-10-01T00:51:32.742Z,9.00
2022-10-01T00:51:41.922Z,9.00
2022-10-01T00:51:51.333Z,9.00
2022-10-01T00:52:00.742Z,9.00
2022-10-01T00:52:10.165Z,9.00
2022-10-01T00:52:19.566Z,9.00
2022-10-01T00:52:28.965Z,8.90
2022-10-01T00:52:38.367Z,8.90
2022-10-01T00:52:47.801Z,8.90
2022-10-01T00:52:57.207Z,9.00
2022-10-01T00:53:06.647Z,8.90
2022-10-01T00:53:16.098Z,8.90
2022-10-01T00:53:25.533Z,8.90
2022-10-01T00:53:34.949Z,8.90
2022-10-01T00:53:44.367Z,8.90
2022-10-01T00:54:03.230Z,8.80
2022-10-01T00:54:12.645Z,8.80
2022-10-01T00:54:22.055Z,8.80
2022-10-01T00:54:31.485Z,8.80
2022-10-01T00:54:40.915Z,8.80
2022-10-01T00:54:50.337Z,8.80
2022-10-01T00:54:59.755Z,8.80
2022-10-01T00:55:09.218Z,8.80
2022-10-01T00:55:18.660Z,8.80
2022-10-01T00:55:28.086Z,8.80
2022-10-01T00:55:37.504Z,8.80
2022-10-01T00:55:46.942Z,8.80
2022-10-01T00:55:56.390Z,8.80
2022-10-01T00:56:05.838Z,8.80
2022-10-01T00:56:15.252Z,8.80
2022-10-01T00:56:24.718Z,8.70
2022-10-01T00:56:34.136Z,8.70
2022-10-01T00:56:52.948Z,8.70
2022-10-01T00:57:02.430Z,8.70
2022-10-01T00:57:11.819Z,8.70
2022-10-01T00:57:21.235Z,8.70
2022-10-01T00:57:30.652Z,8.70
2022-10-01T00:57:40.042Z,8.70
2022-10-01T00:57:49.462Z,8.70
2022-10-01T00:57:58.886Z,8.70
2022-10-01T00:58:08.308Z,8.70
2022-10-01T00:58:17.747Z,8.70
2022-10-01T00:58:27.151Z,8.70
2022-10-01T00:58:36.558Z,8.70
2022-10-01T00:58:45.991Z,8.60
2022-10-01T00:58:55.395Z,8.70
2022-10-01T00:59:04.845Z,8.70
2022-10-01T00:59:14.262Z,8.60
2022-10-01T00:59:33.135Z,8.60
2022-10-01T00:59:42.548Z,8.60
2022-10-01T00:59:51.952Z,8.70
2022-10-01T01:00:01.366Z,8.60
2022-10-01T01:00:10.783Z,8.60
2022-10-01T01:00:20.186Z,8.60
2022-10-01T01:00:29.606Z,8.60
2022-10-01T01:00:38.968Z,8.60
2022-10-01T01:00:48.371Z,8.60
2022-10-01T01:00:57.787Z,8.60
2022-10-01T01:01:07.240Z,8.60
2022-10-01T01:01:16.633Z,8.60
2022-10-01T01:01:26.042Z,8.60
2022-10-01T01:01:35.761Z,8.60
2022-10-01T01:01:44.823Z,8.60
2022-10-01T01:01:54.349Z,8.60
2022-10-01T01:02:13.064Z,8.60
2022-10-01T01:02:22.540Z,8.60
2022-10-01T01:02:31.890Z,8.60
2022-10-01T01:02:41.317Z,8.60
2022-10-01T01:02:50.760Z,8.60
2022-10-01T01:03:00.123Z,8.60
2022-10-01T01:03:09.540Z,8.60
2022-10-01T01:03:19.060Z,8.60
2022-10-01T01:03:28.488Z,8.60
2022-10-01T01:03:37.916Z,8.60
2022-10-01T01:03:47.341Z,8.60
2022-10-01T01:03:56.760Z,8.60
2022-10-01T01:04:06.196Z,8.60
2022-10-01T01:04:15.623Z,8.60
2022-10-01T01:04:25.046Z,8.60
2022-10-01T01:04:34.459Z,8.60
2022-10-01T01:04:53.310Z,8.60
2022-10-01T01:05:02.720Z,8.60
2022-10-01T01:05:12.108Z,8.60
2022-10-01T01:05:21.517Z,8.60
2022-10-01T01:05:30.915Z,8.50
2022-10-01T01:05:40.322Z,8.60
2022-10-01T01:05:49.731Z,8.60
2022-10-01T01:05:59.142Z,8.60
2022-10-01T01:06:08.566Z,8.60
2022-10-01T01:06:17.991Z,8.60
2022-10-01T01:06:27.406Z,8.60
2022-10-01T01:06:36.831Z,8.60
2022-10-01T01:06:49.364Z,8.60
2022-10-01T01:06:58.762Z,8.70
2022-10-01T01:07:08.166Z,8.70
2022-10-01T01:07:17.866Z,8.70
2022-10-01T01:07:27.297Z,8.70
2022-10-01T01:07:36.720Z,8.70
2022-10-01T01:07:46.154Z,8.80
2022-10-01T01:07:55.561Z,8.80
2022-10-01T01:08:04.973Z,8.80
2022-10-01T01:08:14.429Z,8.80
2022-10-01T01:08:33.280Z,8.90
2022-10-01T01:08:42.699Z,8.90
2022-10-01T01:08:52.118Z,8.90
2022-10-01T01:09:01.537Z,8.90
2022-10-01T01:09:10.962Z,9.00
2022-10-01T01:09:20.379Z,8.90
2022-10-01T01:09:29.868Z,9.00
2022-10-01T01:09:39.268Z,9.00
2022-10-01T01:09:48.684Z,9.00
2022-10-01T01:09:58.100Z,9.00
2022-10-01T01:10:07.501Z,9.00
2022-10-01T01:10:17.031Z,9.00
2022-10-01T01:10:26.468Z,9.00
2022-10-01T01:10:35.873Z,9.00
2022-10-01T01:10:45.285Z,9.00
2022-10-01T01:10:54.723Z,9.00
2022-10-01T01:11:04.163Z,8.90
2022-10-01T01:11:22.969Z,9.00
2022-10-01T01:11:32.792Z,9.00
2022-10-01T01:11:41.883Z,9.00
2022-10-01T01:11:51.345Z,9.00
2022-10-01T01:12:00.782Z,9.00
2022-10-01T01:12:10.220Z,9.00
2022-10-01T01:12:19.607Z,9.00
2022-10-01T01:12:29.026Z,9.00
2022-10-01T01:12:38.478Z,9.00
2022-10-01T01:12:47.921Z,9.00
2022-10-01T01:12:57.352Z,9.00
2022-10-01T01:13:06.778Z,9.00
2022-10-01T01:13:16.237Z,9.00
2022-10-01T01:13:25.683Z,9.00
2022-10-01T01:13:35.114Z,9.00
2022-10-01T01:13:44.526Z,9.00
2022-10-01T01:14:03.351Z,8.90
2022-10-01T01:14:12.789Z,8.90
2022-10-01T01:14:22.210Z,8.90
2022-10-01T01:14:31.619Z,8.90
2022-10-01T01:14:41.033Z,8.90
2022-10-01T01:14:50.458Z,8.90
2022-10-01T01:14:59.900Z,8.90
2022-10-01T01:15:09.319Z,8.90
2022-10-01T01:15:18.794Z,8.90
2022-10-01T01:15:28.211Z,8.90
2022-10-01T01:15:37.686Z,8.80
2022-10-01T01:15:47.119Z,8.80
2022-10-01T01:15:56.535Z,8.80
2022-10-01T01:16:05.994Z,8.80
2022-10-01T01:16:15.373Z,8.80
2022-10-01T01:16:24.776Z,8.80
2022-10-01T01:16:34.167Z,8.80
2022-10-01T01:16:52.980Z,8.80
2022-10-01T01:17:02.381Z,8.80
2022-10-01T01:17:11.792Z,8.80
2022-10-01T01:17:21.215Z,8.80
2022-10-01T01:17:30.624Z,8.70
2022-10-01T01:17:40.047Z,8.70
2022-10-01T01:17:49.474Z,8.70
2022-10-01T01:17:58.951Z,8.70
2022-10-01T01:18:08.347Z,8.70
2022-10-01T01:18:17.830Z,8.70
2022-10-01T01:18:27.294Z,8.70
2022-10-01T01:18:36.710Z,8.70
2022-10-01T01:18:46.174Z,8.70
2022-10-01T01:18:55.609Z,8.70
2022-10-01T01:19:05.039Z,8.70
2022-10-01T01:19:14.478Z,8.60
2022-10-01T01:19:33.323Z,8.60
2022-10-01T01:19:42.736Z,8.60
2022-10-01T01:19:52.148Z,8.60
2022-10-01T01:20:01.582Z,8.60
2022-10-01T01:20:11.029Z,8.60
2022-10-01T01:20:20.418Z,8.60
2022-10-01T01:20:29.841Z,8.60
2022-10-01T01:20:39.271Z,8.60
2022-10-01T01:20:48.673Z,8.60
2022-10-01T01:20:58.098Z,8.60
2022-10-01T01:21:07.508Z,8.60
2022-10-01T01:21:16.939Z,8.60
2022-10-01T01:21:26.361Z,8.60
2022-10-01T01:21:36.216Z,8.60
2022-10-01T01:21:45.194Z,8.60
2022-10-01T01:21:54.631Z,8.50
2022-10-01T01:22:04.086Z,8.50
2022-10-01T01:22:22.995Z,8.50
2022-10-01T01:22:32.412Z,8.50
2022-10-01T01:22:41.834Z,8.50
2022-10-01T01:22:51.263Z,8.50
2022-10-01T01:23:00.677Z,8.50
2022-10-01T01:23:10.152Z,8.50
2022-10-01T01:23:19.655Z,8.50
2022-10-01T01:23:29.177Z,8.50
2022-10-01T01:23:38.588Z,8.50
2022-10-01T01:23:48.018Z,8.50
2022-10-01T01:23:57.435Z,8.50
2022-10-01T01:24:06.826Z,8.50
2022-10-01T01:24:16.211Z,8.50
2022-10-01T01:24:25.648Z,8.50
2022-10-01T01:24:35.110Z,8.50
2022-10-01T01:24:44.537Z,8.50
2022-10-01T01:25:03.360Z,8.50
2022-10-01T01:25:12.766Z,8.50
2022-10-01T01:25:22.231Z,8.50
2022-10-01T01:25:31.640Z,8.50
2022-10-01T01:25:41.098Z,8.50
2022-10-01T01:25:50.561Z,8.50
2022-10-01T01:25:59.950Z,8.60
2022-10-01T01:26:09.355Z,8.60
2022-10-01T01:26:18.741Z,8.60
2022-10-01T01:26:28.249Z,8.60
2022-10-01T01:26:37.540Z,8.60
2022-10-01T01:26:46.937Z,8.60
2022-10-01T01:26:56.418Z,8.70
2022-10-01T01:27:05.850Z,8.70
2022-10-01T01:27:15.271Z,8.70
2022-10-01T01:27:24.662Z,8.70
2022-10-01T01:27:43.513Z,8.80
2022-10-01T01:27:52.923Z,8.80
2022-10-01T01:28:02.322Z,8.80
2022-10-01T01:28:11.742Z,8.80
2022-10-01T01:28:21.269Z,8.90
2022-10-01T01:28:30.591Z,8.90
2022-10-01T01:28:39.999Z,8.90
2022-10-01T01:28:49.393Z,8.90
2022-10-01T01:28:58.794Z,8.90
2022-10-01T01:29:08.210Z,9.00
2022-10-01T01:29:17.641Z,9.00
2022-10-01T01:29:27.039Z,9.10
2022-10-01T01:29:36.424Z,9.10
2022-10-01T01:29:45.830Z,9.10
2022-10-01T01:29:55.281Z,9.20
2022-10-01T01:30:04.711Z,9.20
2022-10-01T01:30:14.110Z,9.20
2022-10-01T01:30:32.955Z,9.20
2022-10-01T01:30:42.411Z,9.30
2022-10-01T01:30:51.947Z,9.30
2022-10-01T01:31:01.491Z,9.30
2022-10-01T01:31:10.949Z,9.30
2022-10-01T01:31:20.402Z,9.40
2022-10-01T01:31:29.818Z,9.40
2022-10-01T01:31:39.239Z,9.40
2022-10-01T01:31:48.592Z,9.40
2022-10-01T01:31:58.004Z,9.40
2022-10-01T01:32:10.401Z,9.50
2022-10-01T01:32:16.788Z,9.50
2022-10-01T01:32:26.192Z,9.50
2022-10-01T01:32:35.608Z,9.50
2022-10-01T01:32:45.005Z,9.50
2022-10-01T01:32:54.415Z,9.50
2022-10-01T01:33:13.258Z,9.60
2022-10-01T01:33:22.716Z,9.60
2022-10-01T01:33:32.140Z,9.50
2022-10-01T01:33:41.565Z,9.60
2022-10-01T01:33:50.982Z,9.70
2022-10-01T01:34:00.406Z,9.70
2022-10-01T01:34:09.824Z,9.70
2022-10-01T01:34:19.231Z,9.70
2022-10-01T01:34:28.629Z,9.70
2022-10-01T01:34:38.047Z,9.70
2022-10-01T01:34:47.464Z,9.70
2022-10-01T01:34:56.858Z,9.70
2022-10-01T01:35:06.274Z,9.70
2022-10-01T01:35:15.712Z,9.70
2022-10-01T01:35:25.123Z,9.70
2022-10-01T01:35:34.570Z,9.80
2022-10-01T01:35:53.382Z,9.80
2022-10-01T01:36:02.803Z,9.80
2022-10-01T01:36:12.220Z,9.80
2022-10-01T01:36:21.634Z,9.80
2022-10-01T01:36:31.066Z,9.90
2022-10-01T01:36:40.478Z,9.90
2022-10-01T01:36:52.870Z,9.90
2022-10-01T01:37:02.264Z,9.90
2022-10-01T01:37:11.678Z,9.90
2022-10-01T01:37:21.081Z,9.90
2022-10-01T01:37:30.490Z,9.90
2022-10-01T01:37:39.950Z,9.90
2022-10-01T01:37:49.371Z,9.90
2022-10-01T01:37:58.786Z,9.90
2022-10-01T01:38:08.205Z,9.90
2022-10-01T01:38:17.604Z,10.00
2022-10-01T01:38:27.013Z,9.90
2022-10-01T01:38:36.449Z,10.00
2022-10-01T01:38:45.900Z,10.00
2022-10-01T01:38:55.309Z,10.00
2022-10-01T01:39:04.757Z,10.00
2022-10-01T01:39:14.157Z,10.00
2022-10-01T01:39:33.072Z,10.00
2022-10-01T01:39:42.496Z,10.00
2022-10-01T01:39:51.903Z,10.00
2022-10-01T01:40:01.341Z,10.00
2022-10-01T01:40:10.747Z,10.10
2022-10-01T01:40:20.178Z,10.00
2022-10-01T01:40:29.629Z,10.10
2022-10-01T01:40:39.018Z,10.10
2022-10-01T01:40:48.428Z,10.10
2022-10-01T01:40:57.822Z,10.10
2022-10-01T01:41:07.216Z,10.10
2022-10-01T01:41:16.624Z,10.10
2022-10-01T01:41:26.040Z,10.10
2022-10-01T01:41:35.755Z,10.10
2022-10-01T01:41:44.864Z,10.10
2022-10-01T01:41:54.276Z,10.10
2022-10-01T01:42:13.123Z,10.20
2022-10-01T01:42:22.564Z,10.20
2022-10-01T01:42:31.956Z,10.10
2022-10-01T01:42:41.467Z,10.10
2022-10-01T01:42:50.904Z,10.20
2022-10-01T01:43:00.326Z,10.20
2022-10-01T01:43:09.753Z,10.20
2022-10-01T01:43:19.167Z,10.20
2022-10-01T01:43:28.584Z,10.10
2022-10-01T01:43:38.016Z,10.20
2022-10-01T01:43:47.400Z,10.10
2022-10-01T01:43:56.808Z,10.10
2022-10-01T01:44:06.212Z,10.10
2022-10-01T01:44:15.602Z,10.10
2022-10-01T01:44:25.007Z,10.10
2022-10-01T01:44:34.427Z,10.10
2022-10-01T01:44:53.230Z,10.00
2022-10-01T01:45:02.656Z,10.00
2022-10-01T01:45:12.087Z,10.00
2022-10-01T01:45:21.490Z,10.00
2022-10-01T01:45:31.028Z,10.00
2022-10-01T01:45:40.513Z,9.90
2022-10-01T01:45:49.846Z,9.90
2022-10-01T01:45:59.184Z,9.90
2022-10-01T01:46:08.635Z,9.90
2022-10-01T01:46:18.024Z,9.80
2022-10-01T01:46:27.354Z,9.80
2022-10-01T01:46:36.764Z,9.80
2022-10-01T01:46:46.168Z,9.80
2022-10-01T01:46:55.593Z,9.70
2022-10-01T01:47:05.016Z,9.70
2022-10-01T01:47:14.461Z,9.70
2022-10-01T01:47:33.325Z,9.70
2022-10-01T01:47:42.743Z,9.60
2022-10-01T01:47:52.175Z,9.60
2022-10-01T01:48:01.603Z,9.60
2022-10-01T01:48:11.027Z,9.50
2022-10-01T01:48:20.445Z,9.60
2022-10-01T01:48:29.858Z,9.50
2022-10-01T01:48:39.309Z,9.50
2022-10-01T01:48:48.701Z,9.50
2022-10-01T01:48:58.121Z,9.50
2022-10-01T01:49:07.532Z,9.40
2022-10-01T01:49:16.934Z,9.40
2022-10-01T01:49:26.405Z,9.40
2022-10-01T01:49:35.795Z,9.40
2022-10-01T01:49:45.269Z,9.30
2022-10-01T01:49:54.702Z,9.30
2022-10-01T01:50:04.150Z,9.30
2022-10-01T01:50:22.979Z,9.30
2022-10-01T01:50:32.397Z,9.30
2022-10-01T01:50:41.813Z,9.20
2022-10-01T01:50:51.233Z,9.20
2022-10-01T01:51:00.673Z,9.20
2022-10-01T01:51:10.081Z,9.20
2022-10-01T01:51:19.499Z,9.10
2022-10-01T01:51:28.921Z,9.10
2022-10-01T01:51:38.335Z,9.10
2022-10-01T01:51:47.765Z,9.10
2022-10-01T01:51:57.174Z,9.10
2022-10-01T01:52:06.589Z,9.10
2022-10-01T01:52:16.024Z,9.10
2022-10-01T01:52:25.441Z,9.00
2022-10-01T01:52:34.874Z,9.10
2022-10-01T01:52:44.289Z,9.00
2022-10-01T01:53:03.121Z,9.00
2022-10-01T01:53:12.550Z,9.00
2022-10-01T01:53:21.965Z,9.00
2022-10-01T01:53:31.385Z,9.00
2022-10-01T01:53:40.819Z,9.00
2022-10-01T01:53:50.384Z,9.00
2022-10-01T01:53:59.826Z,9.00
2022-10-01T01:54:09.246Z,9.00
2022-10-01T01:54:18.689Z,8.90
2022-10-01T01:54:28.183Z,8.90
2022-10-01T01:54:37.644Z,8.90
2022-10-01T01:54:47.092Z,8.90
2022-10-01T01:54:56.534Z,8.90
2022-10-01T01:55:05.939Z,8.90
2022-10-01T01:55:15.369Z,8.90
2022-10-01T01:55:24.796Z,8.90
2022-10-01T01:55:34.202Z,8.80
2022-10-01T01:55:53.105Z,8.80
2022-10-01T01:56:02.562Z,8.80
2022-10-01T01:56:12.002Z,8.80
2022-10-01T01:56:21.463Z,8.80
2022-10-01T01:56:30.886Z,8.80
2022-10-01T01:56:40.328Z,8.80
2022-10-01T01:56:49.768Z,8.80
2022-10-01T01:56:59.339Z,8.70
2022-10-01T01:57:08.732Z,8.70
2022-10-01T01:57:18.179Z,8.70
2022-10-01T01:57:27.619Z,8.70
2022-10-01T01:57:37.017Z,8.70
2022-10-01T01:57:46.486Z,8.70
2022-10-01T01:57:55.908Z,8.70
2022-10-01T01:58:05.359Z,8.70
2022-10-01T01:58:14.806Z,8.70
2022-10-01T01:58:24.231Z,8.70
2022-10-01T01:58:43.128Z,8.70
2022-10-01T01:58:52.553Z,8.70
2022-10-01T01:59:01.990Z,8.70
2022-10-01T01:59:11.466Z,8.70
2022-10-01T01:59:20.920Z,8.70
2022-10-01T01:59:30.355Z,8.70
2022-10-01T01:59:39.787Z,8.70
2022-10-01T01:59:49.227Z,8.70
2022-10-01T01:59:58.666Z,8.70
2022-10-01T02:00:08.121Z,8.70
2022-10-01T02:00:17.550Z,8.70
2022-10-01T02:00:26.975Z,8.70
2022-10-01T02:00:36.422Z,8.70
2022-10-01T02:00:45.880Z,8.60
2022-10-01T02:00:55.329Z,8.60
2022-10-01T02:01:04.852Z,8.60
2022-10-01T02:01:14.211Z,8.60
2022-10-01T02:01:33.377Z,8.60
2022-10-01T02:01:42.620Z,8.60
2022-10-01T02:01:51.987Z,8.60
2022-10-01T02:02:02.039Z,8.60
2022-10-01T02:02:11.451Z,8.60
2022-10-01T02:02:20.733Z,8.60
2022-10-01T02:02:30.185Z,8.60
2022-10-01T02:02:39.616Z,8.60
2022-10-01T02:02:49.120Z,8.60
2022-10-01T02:02:58.497Z,8.60
2022-10-01T02:03:07.865Z,8.60
2022-10-01T02:03:17.294Z,8.60
2022-10-01T02:03:26.723Z,8.60
2022-10-01T02:03:36.178Z,8.60
2022-10-01T02:03:45.679Z,8.60
2022-10-01T02:03:55.112Z,8.60
2022-10-01T02:04:04.518Z,8.50
2022-10-01T02:04:23.357Z,8.60
2022-10-01T02:04:32.775Z,8.50
2022-10-01T02:04:42.203Z,8.50
2022-10-01T02:04:51.643Z,8.50
2022-10-01T02:05:01.072Z,8.50
2022-10-01T02:05:10.494Z,8.50
2022-10-01T02:05:19.940Z,8.50
2022-10-01T02:05:29.382Z,8.50
2022-10-01T02:05:38.846Z,8.50
2022-10-01T02:05:48.296Z,8.50
2022-10-01T02:05:57.684Z,8.50
2022-10-01T02:06:07.104Z,8.50
2022-10-01T02:06:16.518Z,8.50
2022-10-01T02:06:25.925Z,8.50
2022-10-01T02:06:35.344Z,8.50
2022-10-01T02:06:44.752Z,8.50
2022-10-01T02:06:54.155Z,8.50
2022-10-01T02:07:12.995Z,8.50
2022-10-01T02:07:22.490Z,8.50
2022-10-01T02:07:31.822Z,8.50
2022-10-01T02:07:41.228Z,8.50
2022-10-01T02:07:50.640Z,8.50
2022-10-01T02:08:00.082Z,8.50
2022-10-01T02:08:09.446Z,8.50
2022-10-01T02:08:18.864Z,8.50
2022-10-01T02:08:28.278Z,8.50
2022-10-01T02:08:37.671Z,8.50
2022-10-01T02:08:47.128Z,8.50
2022-10-01T02:08:56.573Z,8.50
2022-10-01T02:09:05.986Z,8.40
2022-10-01T02:09:15.397Z,8.40
2022-10-01T02:09:24.795Z,8.40
2022-10-01T02:09:34.213Z,8.40
2022-10-01T02:09:53.045Z,8.40
2022-10-01T02:10:02.500Z,8.40
2022-10-01T02:10:11.909Z,8.40
2022-10-01T02:10:21.423Z,8.40
2022-10-01T02:10:30.825Z,8.40
2022-10-01T02:10:40.252Z,8.40
2022-10-01T02:10:49.672Z,8.40
2022-10-01T02:10:59.096Z,8.40
2022-10-01T02:11:08.546Z,8.40
2022-10-01T02:11:17.998Z,8.40
2022-10-01T02:11:27.431Z,8.40
2022-10-01T02:11:36.845Z,8.40
2022-10-01T02:11:46.267Z,8.50
2022-10-01T02:11:55.679Z,8.40
2022-10-01T02:12:05.113Z,8.40
2022-10-01T02:12:14.738Z,8.40
2022-10-01T02:12:24.146Z,8.40
2022-10-01T02:12:42.993Z,8.40
2022-10-01T02:12:52.420Z,8.40